sensor_id;sensor_type;location;lat;lon;timestamp;P1;durP1;ratioP1;P2;durP2;ratioP2
1026;SDS011;502;48.746;9.214;2024-02-16T00:00:57;4.40;;;3.70;;
1026;SDS011;502;48.746;9.214;2024-02-16T00:03:25;4.40;;;3.67;;
1026;SDS011;502;48.746;9.214;2024-02-16T00:05:51;5.10;;;3.93;;
1026;SDS011;502;48.746;9.214;2024-02-16T00:08:18;5.00;;;3.80;;
1026;SDS011;502;48.746;9.214;2024-02-16T00:10:46;5.03;;;4.07;;
1026;SDS011;502;48.746;9.214;2024-02-16T00:13:13;4.30;;;3.70;;
1026;SDS011;502;48.746;9.214;2024-02-16T00:15:39;4.17;;;3.53;;
1026;SDS011;502;48.746;9.214;2024-02-16T00:18:06;6.00;;;4.13;;
1026;SDS011;502;48.746;9.214;2024-02-16T00:20:33;4.67;;;4.10;;
1026;SDS011;502;48.746;9.214;2024-02-16T00:22:59;4.97;;;4.27;;
1026;SDS011;502;48.746;9.214;2024-02-16T00:25:26;4.57;;;4.07;;
1026;SDS011;502;48.746;9.214;2024-02-16T00:27:54;5.07;;;4.30;;
1026;SDS011;502;48.746;9.214;2024-02-16T00:30:21;4.87;;;4.30;;
1026;SDS011;502;48.746;9.214;2024-02-16T00:32:48;5.73;;;3.60;;
1026;SDS011;502;48.746;9.214;2024-02-16T00:35:15;4.70;;;3.87;;
1026;SDS011;502;48.746;9.214;2024-02-16T00:37:42;11.30;;;3.83;;
1026;SDS011;502;48.746;9.214;2024-02-16T00:40:11;6.83;;;3.70;;
1026;SDS011;502;48.746;9.214;2024-02-16T00:42:38;4.73;;;3.90;;
1026;SDS011;502;48.746;9.214;2024-02-16T00:45:06;3.80;;;3.40;;
1026;SDS011;502;48.746;9.214;2024-02-16T00:47:33;4.43;;;3.87;;
1026;SDS011;502;48.746;9.214;2024-02-16T00:50:00;4.10;;;3.47;;
1026;SDS011;502;48.746;9.214;2024-02-16T00:52:28;3.87;;;3.50;;
1026;SDS011;502;48.746;9.214;2024-02-16T00:54:54;4.37;;;3.97;;
1026;SDS011;502;48.746;9.214;2024-02-16T00:57:21;4.40;;;3.27;;
1026;SDS011;502;48.746;9.214;2024-02-16T00:59:47;4.47;;;3.43;;
1026;SDS011;502;48.746;9.214;2024-02-16T01:02:15;4.90;;;3.30;;
1026;SDS011;502;48.746;9.214;2024-02-16T01:04:42;3.40;;;2.93;;
1026;SDS011;502;48.746;9.214;2024-02-16T01:07:09;3.87;;;3.47;;
1026;SDS011;502;48.746;9.214;2024-02-16T01:09:35;5.70;;;3.83;;
1026;SDS011;502;48.746;9.214;2024-02-16T01:12:02;4.03;;;3.20;;
1026;SDS011;502;48.746;9.214;2024-02-16T01:14:28;4.77;;;3.83;;
1026;SDS011;502;48.746;9.214;2024-02-16T01:16:55;3.90;;;3.13;;
1026;SDS011;502;48.746;9.214;2024-02-16T01:19:23;4.10;;;3.67;;
1026;SDS011;502;48.746;9.214;2024-02-16T01:21:49;4.53;;;3.57;;
1026;SDS011;502;48.746;9.214;2024-02-16T01:24:18;4.40;;;3.30;;
1026;SDS011;502;48.746;9.214;2024-02-16T01:26:45;4.53;;;3.20;;
1026;SDS011;502;48.746;9.214;2024-02-16T01:29:11;3.57;;;3.13;;
1026;SDS011;502;48.746;9.214;2024-02-16T01:31:38;4.10;;;3.60;;
1026;SDS011;502;48.746;9.214;2024-02-16T01:34:04;3.40;;;2.90;;
1026;SDS011;502;48.746;9.214;2024-02-16T01:36:33;3.30;;;2.93;;
1026;SDS011;502;48.746;9.214;2024-02-16T01:39:00;5.07;;;3.10;;
1026;SDS011;502;48.746;9.214;2024-02-16T01:41:26;2.83;;;2.47;;
1026;SDS011;502;48.746;9.214;2024-02-16T01:43:53;4.53;;;3.20;;
1026;SDS011;502;48.746;9.214;2024-02-16T01:46:19;3.43;;;3.13;;
1026;SDS011;502;48.746;9.214;2024-02-16T01:48:48;4.43;;;3.20;;
1026;SDS011;502;48.746;9.214;2024-02-16T01:51:15;4.07;;;3.03;;
1026;SDS011;502;48.746;9.214;2024-02-16T01:53:43;3.70;;;3.10;;
1026;SDS011;502;48.746;9.214;2024-02-16T01:56:10;4.23;;;3.40;;
1026;SDS011;502;48.746;9.214;2024-02-16T01:58:36;5.33;;;3.30;;
1026;SDS011;502;48.746;9.214;2024-02-16T02:01:03;5.07;;;4.00;;
1026;SDS011;502;48.746;9.214;2024-02-16T02:03:29;4.50;;;3.33;;
1026;SDS011;502;48.746;9.214;2024-02-16T02:05:56;4.20;;;3.30;;
1026;SDS011;502;48.746;9.214;2024-02-16T02:08:23;3.87;;;3.10;;
1026;SDS011;502;48.746;9.214;2024-02-16T02:10:52;3.50;;;3.20;;
1026;SDS011;502;48.746;9.214;2024-02-16T02:13:19;3.57;;;3.10;;
1026;SDS011;502;48.746;9.214;2024-02-16T02:15:47;4.90;;;3.87;;
1026;SDS011;502;48.746;9.214;2024-02-16T02:18:13;3.40;;;3.10;;
1026;SDS011;502;48.746;9.214;2024-02-16T02:20:40;4.50;;;3.37;;
1026;SDS011;502;48.746;9.214;2024-02-16T02:23:09;5.10;;;3.57;;
1026;SDS011;502;48.746;9.214;2024-02-16T02:25:35;3.73;;;3.20;;
1026;SDS011;502;48.746;9.214;2024-02-16T02:28:02;4.27;;;3.70;;
1026;SDS011;502;48.746;9.214;2024-02-16T02:30:29;4.40;;;3.50;;
1026;SDS011;502;48.746;9.214;2024-02-16T02:32:55;4.70;;;4.30;;
1026;SDS011;502;48.746;9.214;2024-02-16T02:35:22;4.53;;;3.53;;
1026;SDS011;502;48.746;9.214;2024-02-16T02:37:48;4.83;;;3.80;;
1026;SDS011;502;48.746;9.214;2024-02-16T02:40:17;4.13;;;3.70;;
1026;SDS011;502;48.746;9.214;2024-02-16T02:42:43;4.13;;;3.63;;
1026;SDS011;502;48.746;9.214;2024-02-16T02:45:10;5.70;;;4.57;;
1026;SDS011;502;48.746;9.214;2024-02-16T02:47:36;6.47;;;4.47;;
1026;SDS011;502;48.746;9.214;2024-02-16T02:50:03;5.90;;;3.60;;
1026;SDS011;502;48.746;9.214;2024-02-16T02:52:31;4.03;;;3.63;;
1026;SDS011;502;48.746;9.214;2024-02-16T02:54:57;4.73;;;4.10;;
1026;SDS011;502;48.746;9.214;2024-02-16T02:57:25;4.80;;;4.10;;
1026;SDS011;502;48.746;9.214;2024-02-16T02:59:52;4.10;;;3.50;;
1026;SDS011;502;48.746;9.214;2024-02-16T03:02:18;4.77;;;3.90;;
1026;SDS011;502;48.746;9.214;2024-02-16T03:04:45;3.90;;;3.53;;
1026;SDS011;502;48.746;9.214;2024-02-16T03:07:12;4.03;;;3.63;;
1026;SDS011;502;48.746;9.214;2024-02-16T03:09:40;4.83;;;4.37;;
1026;SDS011;502;48.746;9.214;2024-02-16T03:12:07;5.00;;;3.57;;
1026;SDS011;502;48.746;9.214;2024-02-16T03:14:35;5.07;;;4.40;;
1026;SDS011;502;48.746;9.214;2024-02-16T03:17:03;4.03;;;3.63;;
1026;SDS011;502;48.746;9.214;2024-02-16T03:19:30;4.40;;;4.00;;
1026;SDS011;502;48.746;9.214;2024-02-16T03:21:56;4.07;;;3.60;;
1026;SDS011;502;48.746;9.214;2024-02-16T03:24:24;8.10;;;3.20;;
1026;SDS011;502;48.746;9.214;2024-02-16T03:26:50;5.20;;;4.23;;
1026;SDS011;502;48.746;9.214;2024-02-16T03:29:17;3.90;;;3.50;;
1026;SDS011;502;48.746;9.214;2024-02-16T03:31:45;3.43;;;3.10;;
1026;SDS011;502;48.746;9.214;2024-02-16T03:34:11;4.00;;;3.60;;
1026;SDS011;502;48.746;9.214;2024-02-16T03:36:38;4.20;;;3.57;;
1026;SDS011;502;48.746;9.214;2024-02-16T03:39:04;6.40;;;4.53;;
1026;SDS011;502;48.746;9.214;2024-02-16T03:41:33;5.10;;;3.53;;
1026;SDS011;502;48.746;9.214;2024-02-16T03:44:00;4.83;;;3.80;;
1026;SDS011;502;48.746;9.214;2024-02-16T03:46:27;4.07;;;3.77;;
1026;SDS011;502;48.746;9.214;2024-02-16T03:48:55;4.63;;;4.20;;
1026;SDS011;502;48.746;9.214;2024-02-16T03:51:22;6.10;;;4.57;;
1026;SDS011;502;48.746;9.214;2024-02-16T03:53:48;4.80;;;4.03;;
1026;SDS011;502;48.746;9.214;2024-02-16T03:56:18;7.37;;;4.87;;
1026;SDS011;502;48.746;9.214;2024-02-16T03:58:44;4.70;;;4.13;;
1026;SDS011;502;48.746;9.214;2024-02-16T04:01:11;5.10;;;4.60;;
1026;SDS011;502;48.746;9.214;2024-02-16T04:03:38;5.20;;;4.30;;
1026;SDS011;502;48.746;9.214;2024-02-16T04:06:07;5.20;;;4.10;;
1026;SDS011;502;48.746;9.214;2024-02-16T04:08:33;7.90;;;5.20;;
1026;SDS011;502;48.746;9.214;2024-02-16T04:11:00;4.53;;;4.10;;
1026;SDS011;502;48.746;9.214;2024-02-16T04:13:26;5.63;;;4.80;;
1026;SDS011;502;48.746;9.214;2024-02-16T04:15:52;5.00;;;4.30;;
1026;SDS011;502;48.746;9.214;2024-02-16T04:18:19;6.40;;;4.90;;
1026;SDS011;502;48.746;9.214;2024-02-16T04:20:46;6.20;;;4.63;;
1026;SDS011;502;48.746;9.214;2024-02-16T04:23:14;4.03;;;3.60;;
1026;SDS011;502;48.746;9.214;2024-02-16T04:25:40;5.00;;;4.50;;
1026;SDS011;502;48.746;9.214;2024-02-16T04:28:07;5.27;;;4.77;;
1026;SDS011;502;48.746;9.214;2024-02-16T04:30:34;5.57;;;5.00;;
1026;SDS011;502;48.746;9.214;2024-02-16T04:33:01;5.13;;;4.30;;
1026;SDS011;502;48.746;9.214;2024-02-16T04:35:29;5.20;;;4.70;;
1026;SDS011;502;48.746;9.214;2024-02-16T04:37:58;8.70;;;5.90;;
1026;SDS011;502;48.746;9.214;2024-02-16T04:40:26;6.60;;;5.20;;
1026;SDS011;502;48.746;9.214;2024-02-16T04:42:53;5.67;;;4.77;;
1026;SDS011;502;48.746;9.214;2024-02-16T04:45:19;7.63;;;5.87;;
1026;SDS011;502;48.746;9.214;2024-02-16T04:47:46;7.10;;;5.33;;
1026;SDS011;502;48.746;9.214;2024-02-16T04:50:13;5.03;;;4.53;;
1026;SDS011;502;48.746;9.214;2024-02-16T04:52:40;10.83;;;5.70;;
1026;SDS011;502;48.746;9.214;2024-02-16T04:55:09;7.50;;;5.63;;
1026;SDS011;502;48.746;9.214;2024-02-16T04:57:36;7.20;;;5.53;;
1026;SDS011;502;48.746;9.214;2024-02-16T05:00:03;6.70;;;5.30;;
1026;SDS011;502;48.746;9.214;2024-02-16T05:02:31;5.93;;;5.33;;
1026;SDS011;502;48.746;9.214;2024-02-16T05:04:57;5.63;;;5.00;;
1026;SDS011;502;48.746;9.214;2024-02-16T05:07:24;7.83;;;5.53;;
1026;SDS011;502;48.746;9.214;2024-02-16T05:09:50;7.47;;;5.93;;
1026;SDS011;502;48.746;9.214;2024-02-16T05:12:21;6.47;;;5.30;;
1026;SDS011;502;48.746;9.214;2024-02-16T05:14:49;7.80;;;5.20;;
1026;SDS011;502;48.746;9.214;2024-02-16T05:17:16;5.87;;;5.30;;
1026;SDS011;502;48.746;9.214;2024-02-16T05:19:44;7.40;;;5.87;;
1026;SDS011;502;48.746;9.214;2024-02-16T05:22:10;7.70;;;5.83;;
1026;SDS011;502;48.746;9.214;2024-02-16T05:24:37;5.63;;;5.00;;
1026;SDS011;502;48.746;9.214;2024-02-16T05:27:04;5.87;;;5.20;;
1026;SDS011;502;48.746;9.214;2024-02-16T05:29:30;6.10;;;5.50;;
1026;SDS011;502;48.746;9.214;2024-02-16T05:31:58;6.33;;;4.97;;
1026;SDS011;502;48.746;9.214;2024-02-16T05:34:25;6.87;;;6.10;;
1026;SDS011;502;48.746;9.214;2024-02-16T05:36:51;6.00;;;5.40;;
1026;SDS011;502;48.746;9.214;2024-02-16T05:39:18;6.07;;;5.47;;
1026;SDS011;502;48.746;9.214;2024-02-16T05:41:52;6.10;;;4.60;;
1026;SDS011;502;48.746;9.214;2024-02-16T05:44:19;6.17;;;5.57;;
1026;SDS011;502;48.746;9.214;2024-02-16T05:46:46;6.60;;;5.03;;
1026;SDS011;502;48.746;9.214;2024-02-16T05:49:14;5.30;;;4.80;;
1026;SDS011;502;48.746;9.214;2024-02-16T05:51:41;10.73;;;5.30;;
1026;SDS011;502;48.746;9.214;2024-02-16T05:54:08;6.27;;;5.00;;
1026;SDS011;502;48.746;9.214;2024-02-16T05:56:35;7.30;;;5.70;;
1026;SDS011;502;48.746;9.214;2024-02-16T05:59:06;5.67;;;4.80;;
1026;SDS011;502;48.746;9.214;2024-02-16T06:01:32;6.00;;;5.40;;
1026;SDS011;502;48.746;9.214;2024-02-16T06:03:59;6.27;;;5.10;;
1026;SDS011;502;48.746;9.214;2024-02-16T06:06:26;5.90;;;5.30;;
1026;SDS011;502;48.746;9.214;2024-02-16T06:08:53;6.63;;;5.77;;
1026;SDS011;502;48.746;9.214;2024-02-16T06:11:19;8.37;;;6.10;;
1026;SDS011;502;48.746;9.214;2024-02-16T06:13:46;6.47;;;5.77;;
1026;SDS011;502;48.746;9.214;2024-02-16T06:16:13;6.90;;;6.20;;
1026;SDS011;502;48.746;9.214;2024-02-16T06:18:39;8.33;;;6.47;;
1026;SDS011;502;48.746;9.214;2024-02-16T06:21:07;12.50;;;5.50;;
1026;SDS011;502;48.746;9.214;2024-02-16T06:23:35;6.93;;;5.43;;
1026;SDS011;502;48.746;9.214;2024-02-16T06:26:01;7.60;;;6.33;;
1026;SDS011;502;48.746;9.214;2024-02-16T06:28:28;6.50;;;5.20;;
1026;SDS011;502;48.746;9.214;2024-02-16T06:30:57;7.00;;;5.60;;
1026;SDS011;502;48.746;9.214;2024-02-16T06:33:24;8.80;;;5.83;;
1026;SDS011;502;48.746;9.214;2024-02-16T06:35:51;6.00;;;5.40;;
1026;SDS011;502;48.746;9.214;2024-02-16T06:38:20;8.17;;;6.10;;
1026;SDS011;502;48.746;9.214;2024-02-16T06:40:51;6.27;;;5.60;;
1026;SDS011;502;48.746;9.214;2024-02-16T06:43:18;5.47;;;4.77;;
1026;SDS011;502;48.746;9.214;2024-02-16T06:45:45;8.90;;;5.63;;
1026;SDS011;502;48.746;9.214;2024-02-16T06:48:12;5.00;;;4.50;;
1026;SDS011;502;48.746;9.214;2024-02-16T06:50:38;5.60;;;4.83;;
1026;SDS011;502;48.746;9.214;2024-02-16T06:53:07;5.20;;;4.60;;
1026;SDS011;502;48.746;9.214;2024-02-16T06:55:34;5.93;;;5.33;;
1026;SDS011;502;48.746;9.214;2024-02-16T06:58:02;5.53;;;4.90;;
1026;SDS011;502;48.746;9.214;2024-02-16T07:00:29;4.43;;;4.00;;
1026;SDS011;502;48.746;9.214;2024-02-16T07:02:56;6.47;;;4.40;;
1026;SDS011;502;48.746;9.214;2024-02-16T07:05:22;6.00;;;4.60;;
1026;SDS011;502;48.746;9.214;2024-02-16T07:07:49;9.90;;;5.87;;
1026;SDS011;502;48.746;9.214;2024-02-16T07:10:16;6.10;;;4.07;;
1026;SDS011;502;48.746;9.214;2024-02-16T07:12:42;5.87;;;4.67;;
1026;SDS011;502;48.746;9.214;2024-02-16T07:15:12;8.00;;;5.23;;
1026;SDS011;502;48.746;9.214;2024-02-16T07:17:41;7.00;;;4.77;;
1026;SDS011;502;48.746;9.214;2024-02-16T07:20:11;5.53;;;5.00;;
1026;SDS011;502;48.746;9.214;2024-02-16T07:22:40;7.07;;;4.27;;
1026;SDS011;502;48.746;9.214;2024-02-16T07:25:07;6.57;;;4.50;;
1026;SDS011;502;48.746;9.214;2024-02-16T07:27:35;5.50;;;4.43;;
1026;SDS011;502;48.746;9.214;2024-02-16T07:30:03;7.67;;;4.90;;
1026;SDS011;502;48.746;9.214;2024-02-16T07:32:32;5.37;;;4.37;;
1026;SDS011;502;48.746;9.214;2024-02-16T07:34:59;5.77;;;5.17;;
1026;SDS011;502;48.746;9.214;2024-02-16T07:37:30;4.90;;;4.33;;
1026;SDS011;502;48.746;9.214;2024-02-16T07:39:57;5.57;;;4.10;;
1026;SDS011;502;48.746;9.214;2024-02-16T07:42:24;5.03;;;4.50;;
1026;SDS011;502;48.746;9.214;2024-02-16T07:44:53;5.20;;;4.70;;
1026;SDS011;502;48.746;9.214;2024-02-16T07:47:21;6.03;;;4.43;;
1026;SDS011;502;48.746;9.214;2024-02-16T07:49:51;5.50;;;4.87;;
1026;SDS011;502;48.746;9.214;2024-02-16T07:52:18;5.13;;;4.30;;
1026;SDS011;502;48.746;9.214;2024-02-16T07:54:45;7.53;;;5.70;;
1026;SDS011;502;48.746;9.214;2024-02-16T07:57:11;6.33;;;5.40;;
1026;SDS011;502;48.746;9.214;2024-02-16T07:59:38;6.70;;;5.00;;
1026;SDS011;502;48.746;9.214;2024-02-16T08:02:05;7.97;;;4.90;;
1026;SDS011;502;48.746;9.214;2024-02-16T08:04:32;5.20;;;4.43;;
1026;SDS011;502;48.746;9.214;2024-02-16T08:07:00;5.23;;;4.73;;
1026;SDS011;502;48.746;9.214;2024-02-16T08:09:26;6.40;;;5.07;;
1026;SDS011;502;48.746;9.214;2024-02-16T08:11:53;4.80;;;4.40;;
1026;SDS011;502;48.746;9.214;2024-02-16T08:14:19;5.30;;;4.37;;
1026;SDS011;502;48.746;9.214;2024-02-16T08:16:46;7.13;;;4.97;;
1026;SDS011;502;48.746;9.214;2024-02-16T08:19:12;5.97;;;4.47;;
1026;SDS011;502;48.746;9.214;2024-02-16T08:21:39;6.70;;;4.90;;
1026;SDS011;502;48.746;9.214;2024-02-16T08:24:07;5.63;;;4.80;;
1026;SDS011;502;48.746;9.214;2024-02-16T08:26:34;5.10;;;4.60;;
1026;SDS011;502;48.746;9.214;2024-02-16T08:29:00;5.23;;;4.73;;
1026;SDS011;502;48.746;9.214;2024-02-16T08:31:27;6.70;;;4.57;;
1026;SDS011;502;48.746;9.214;2024-02-16T08:33:53;4.80;;;4.30;;
1026;SDS011;502;48.746;9.214;2024-02-16T08:36:20;5.27;;;4.53;;
1026;SDS011;502;48.746;9.214;2024-02-16T08:38:53;5.10;;;4.03;;
1026;SDS011;502;48.746;9.214;2024-02-16T08:41:20;6.80;;;4.23;;
1026;SDS011;502;48.746;9.214;2024-02-16T08:43:49;3.97;;;3.47;;
1026;SDS011;502;48.746;9.214;2024-02-16T08:46:16;4.70;;;4.30;;
1026;SDS011;502;48.746;9.214;2024-02-16T08:48:43;3.73;;;3.43;;
1026;SDS011;502;48.746;9.214;2024-02-16T08:51:10;3.60;;;3.27;;
1026;SDS011;502;48.746;9.214;2024-02-16T08:53:37;4.10;;;3.70;;
1026;SDS011;502;48.746;9.214;2024-02-16T08:56:03;4.60;;;3.50;;
1026;SDS011;502;48.746;9.214;2024-02-16T08:58:36;5.47;;;3.70;;
1026;SDS011;502;48.746;9.214;2024-02-16T09:01:03;5.20;;;3.50;;
1026;SDS011;502;48.746;9.214;2024-02-16T09:03:30;3.63;;;3.20;;
1026;SDS011;502;48.746;9.214;2024-02-16T09:06:02;3.90;;;2.80;;
1026;SDS011;502;48.746;9.214;2024-02-16T09:08:28;4.00;;;3.00;;
1026;SDS011;502;48.746;9.214;2024-02-16T09:10:58;5.20;;;3.30;;
1026;SDS011;502;48.746;9.214;2024-02-16T09:13:25;3.10;;;2.73;;
1026;SDS011;502;48.746;9.214;2024-02-16T09:15:53;4.93;;;2.97;;
1026;SDS011;502;48.746;9.214;2024-02-16T09:18:19;2.90;;;2.60;;
1026;SDS011;502;48.746;9.214;2024-02-16T09:20:46;4.23;;;2.77;;
1026;SDS011;502;48.746;9.214;2024-02-16T09:26:29;3.90;;;3.07;;
1026;SDS011;502;48.746;9.214;2024-02-16T09:29:01;4.60;;;2.37;;
1026;SDS011;502;48.746;9.214;2024-02-16T09:31:29;5.47;;;2.60;;
1026;SDS011;502;48.746;9.214;2024-02-16T09:33:56;2.33;;;2.13;;
1026;SDS011;502;48.746;9.214;2024-02-16T09:36:22;3.77;;;2.90;;
1026;SDS011;502;48.746;9.214;2024-02-16T09:38:49;3.47;;;2.90;;
1026;SDS011;502;48.746;9.214;2024-02-16T09:41:16;3.77;;;3.23;;
1026;SDS011;502;48.746;9.214;2024-02-16T09:43:42;3.10;;;2.40;;
1026;SDS011;502;48.746;9.214;2024-02-16T09:46:09;2.57;;;2.03;;
1026;SDS011;502;48.746;9.214;2024-02-16T09:48:37;2.53;;;1.70;;
1026;SDS011;502;48.746;9.214;2024-02-16T09:51:05;4.10;;;2.27;;
1026;SDS011;502;48.746;9.214;2024-02-16T09:53:32;2.40;;;1.83;;
1026;SDS011;502;48.746;9.214;2024-02-16T09:55:59;2.57;;;1.77;;
1026;SDS011;502;48.746;9.214;2024-02-16T09:58:26;2.20;;;2.00;;
1026;SDS011;502;48.746;9.214;2024-02-16T10:00:54;2.67;;;1.90;;
1026;SDS011;502;48.746;9.214;2024-02-16T10:03:22;3.93;;;2.00;;
1026;SDS011;502;48.746;9.214;2024-02-16T10:05:51;2.80;;;1.60;;
1026;SDS011;502;48.746;9.214;2024-02-16T10:08:18;2.33;;;1.67;;
1026;SDS011;502;48.746;9.214;2024-02-16T10:10:44;4.60;;;1.80;;
1026;SDS011;502;48.746;9.214;2024-02-16T10:13:11;2.47;;;1.87;;
1026;SDS011;502;48.746;9.214;2024-02-16T10:15:38;2.57;;;1.77;;
1026;SDS011;502;48.746;9.214;2024-02-16T10:18:05;2.30;;;1.57;;
1026;SDS011;502;48.746;9.214;2024-02-16T10:20:33;3.20;;;1.70;;
1026;SDS011;502;48.746;9.214;2024-02-16T10:23:07;2.47;;;1.50;;
1026;SDS011;502;48.746;9.214;2024-02-16T10:25:35;3.10;;;1.70;;
1026;SDS011;502;48.746;9.214;2024-02-16T10:28:04;3.17;;;1.70;;
1026;SDS011;502;48.746;9.214;2024-02-16T10:30:34;1.87;;;1.50;;
1026;SDS011;502;48.746;9.214;2024-02-16T10:33:02;2.57;;;2.07;;
1026;SDS011;502;48.746;9.214;2024-02-16T10:35:30;3.50;;;2.07;;
1026;SDS011;502;48.746;9.214;2024-02-16T10:37:58;3.50;;;1.80;;
1026;SDS011;502;48.746;9.214;2024-02-16T10:40:31;3.23;;;2.10;;
1026;SDS011;502;48.746;9.214;2024-02-16T10:43:00;2.20;;;1.70;;
1026;SDS011;502;48.746;9.214;2024-02-16T10:45:31;4.93;;;1.50;;
1026;SDS011;502;48.746;9.214;2024-02-16T10:47:59;2.90;;;1.93;;
1026;SDS011;502;48.746;9.214;2024-02-16T10:50:26;2.43;;;2.10;;
1026;SDS011;502;48.746;9.214;2024-02-16T10:52:53;3.80;;;2.17;;
1026;SDS011;502;48.746;9.214;2024-02-16T10:55:20;2.63;;;1.73;;
1026;SDS011;502;48.746;9.214;2024-02-16T10:57:48;3.27;;;1.80;;
1026;SDS011;502;48.746;9.214;2024-02-16T11:00:15;2.27;;;1.50;;
1026;SDS011;502;48.746;9.214;2024-02-16T11:02:52;3.07;;;1.60;;
1026;SDS011;502;48.746;9.214;2024-02-16T11:05:31;2.23;;;1.47;;
1026;SDS011;502;48.746;9.214;2024-02-16T11:08:01;3.07;;;2.10;;
1026;SDS011;502;48.746;9.214;2024-02-16T11:10:29;3.43;;;1.90;;
1026;SDS011;502;48.746;9.214;2024-02-16T11:13:01;2.27;;;1.83;;
1026;SDS011;502;48.746;9.214;2024-02-16T11:15:30;3.20;;;1.67;;
1026;SDS011;502;48.746;9.214;2024-02-16T11:17:57;2.30;;;1.70;;
1026;SDS011;502;48.746;9.214;2024-02-16T11:20:24;4.67;;;2.00;;
1026;SDS011;502;48.746;9.214;2024-02-16T11:22:52;4.30;;;1.90;;
1026;SDS011;502;48.746;9.214;2024-02-16T11:25:18;5.60;;;2.33;;
1026;SDS011;502;48.746;9.214;2024-02-16T11:27:45;2.70;;;2.27;;
1026;SDS011;502;48.746;9.214;2024-02-16T11:33:10;3.77;;;2.83;;
1026;SDS011;502;48.746;9.214;2024-02-16T11:35:36;3.17;;;2.10;;
1026;SDS011;502;48.746;9.214;2024-02-16T11:38:03;2.00;;;1.70;;
1026;SDS011;502;48.746;9.214;2024-02-16T11:40:30;3.00;;;2.03;;
1026;SDS011;502;48.746;9.214;2024-02-16T11:42:57;3.57;;;2.07;;
1026;SDS011;502;48.746;9.214;2024-02-16T11:45:24;3.93;;;2.20;;
1026;SDS011;502;48.746;9.214;2024-02-16T11:48:02;3.50;;;2.47;;
1026;SDS011;502;48.746;9.214;2024-02-16T11:50:29;3.03;;;1.90;;
1026;SDS011;502;48.746;9.214;2024-02-16T11:52:56;3.90;;;2.17;;
1026;SDS011;502;48.746;9.214;2024-02-16T11:55:23;6.60;;;2.83;;
1026;SDS011;502;48.746;9.214;2024-02-16T11:57:50;4.00;;;2.17;;
1026;SDS011;502;48.746;9.214;2024-02-16T12:00:17;2.97;;;2.27;;
1026;SDS011;502;48.746;9.214;2024-02-16T12:02:43;3.00;;;2.40;;
1026;SDS011;502;48.746;9.214;2024-02-16T12:05:14;4.20;;;2.47;;
1026;SDS011;502;48.746;9.214;2024-02-16T12:07:41;3.87;;;2.37;;
1026;SDS011;502;48.746;9.214;2024-02-16T12:10:07;4.80;;;1.97;;
1026;SDS011;502;48.746;9.214;2024-02-16T12:12:35;3.67;;;2.17;;
1026;SDS011;502;48.746;9.214;2024-02-16T12:15:02;3.60;;;1.80;;
1026;SDS011;502;48.746;9.214;2024-02-16T12:17:31;2.63;;;2.20;;
1026;SDS011;502;48.746;9.214;2024-02-16T12:19:58;2.90;;;2.37;;
1026;SDS011;502;48.746;9.214;2024-02-16T12:22:26;2.43;;;2.13;;
1026;SDS011;502;48.746;9.214;2024-02-16T12:24:52;2.47;;;1.70;;
1026;SDS011;502;48.746;9.214;2024-02-16T12:27:19;3.33;;;2.03;;
1026;SDS011;502;48.746;9.214;2024-02-16T12:29:45;4.60;;;2.00;;
1026;SDS011;502;48.746;9.214;2024-02-16T12:32:13;5.10;;;2.10;;
1026;SDS011;502;48.746;9.214;2024-02-16T12:34:43;3.60;;;2.17;;
1026;SDS011;502;48.746;9.214;2024-02-16T12:37:10;3.80;;;2.13;;
1026;SDS011;502;48.746;9.214;2024-02-16T12:39:37;3.30;;;1.63;;
1026;SDS011;502;48.746;9.214;2024-02-16T12:42:05;3.13;;;1.97;;
1026;SDS011;502;48.746;9.214;2024-02-16T12:44:31;3.47;;;1.90;;
1026;SDS011;502;48.746;9.214;2024-02-16T12:46:58;4.57;;;2.40;;
1026;SDS011;502;48.746;9.214;2024-02-16T12:49:24;3.20;;;1.93;;
1026;SDS011;502;48.746;9.214;2024-02-16T12:51:51;3.20;;;2.40;;
1026;SDS011;502;48.746;9.214;2024-02-16T12:54:18;4.87;;;2.00;;
1026;SDS011;502;48.746;9.214;2024-02-16T12:56:46;2.40;;;1.80;;
1026;SDS011;502;48.746;9.214;2024-02-16T12:59:12;3.93;;;2.10;;
1026;SDS011;502;48.746;9.214;2024-02-16T13:01:39;2.40;;;1.83;;
1026;SDS011;502;48.746;9.214;2024-02-16T13:04:06;4.23;;;2.10;;
1026;SDS011;502;48.746;9.214;2024-02-16T13:06:33;2.33;;;2.10;;
1026;SDS011;502;48.746;9.214;2024-02-16T13:08:59;5.27;;;2.50;;
1026;SDS011;502;48.746;9.214;2024-02-16T13:11:27;3.70;;;2.27;;
1026;SDS011;502;48.746;9.214;2024-02-16T13:13:55;3.13;;;1.97;;
1026;SDS011;502;48.746;9.214;2024-02-16T13:16:21;3.00;;;2.33;;
1026;SDS011;502;48.746;9.214;2024-02-16T13:18:48;3.40;;;2.10;;
1026;SDS011;502;48.746;9.214;2024-02-16T13:21:15;2.90;;;2.00;;
1026;SDS011;502;48.746;9.214;2024-02-16T13:23:41;5.43;;;2.70;;
1026;SDS011;502;48.746;9.214;2024-02-16T13:26:08;3.10;;;2.00;;
1026;SDS011;502;48.746;9.214;2024-02-16T13:28:34;4.30;;;2.63;;
1026;SDS011;502;48.746;9.214;2024-02-16T13:31:02;3.43;;;2.53;;
1026;SDS011;502;48.746;9.214;2024-02-16T13:33:29;5.33;;;3.87;;
1026;SDS011;502;48.746;9.214;2024-02-16T13:35:55;4.27;;;2.53;;
1026;SDS011;502;48.746;9.214;2024-02-16T13:38:22;7.17;;;3.10;;
1026;SDS011;502;48.746;9.214;2024-02-16T13:40:48;5.23;;;3.10;;
1026;SDS011;502;48.746;9.214;2024-02-16T13:43:15;4.83;;;3.30;;
1026;SDS011;502;48.746;9.214;2024-02-16T13:45:50;4.37;;;3.40;;
1026;SDS011;502;48.746;9.214;2024-02-16T13:48:18;5.80;;;2.80;;
1026;SDS011;502;48.746;9.214;2024-02-16T13:50:45;5.20;;;3.20;;
1026;SDS011;502;48.746;9.214;2024-02-16T13:53:13;4.90;;;3.87;;
1026;SDS011;502;48.746;9.214;2024-02-16T13:55:42;5.57;;;3.50;;
1026;SDS011;502;48.746;9.214;2024-02-16T13:58:09;3.83;;;3.23;;
1026;SDS011;502;48.746;9.214;2024-02-16T14:00:35;6.93;;;3.93;;
1026;SDS011;502;48.746;9.214;2024-02-16T14:03:03;5.20;;;3.60;;
1026;SDS011;502;48.746;9.214;2024-02-16T14:05:31;6.80;;;3.53;;
1026;SDS011;502;48.746;9.214;2024-02-16T14:07:58;6.70;;;3.97;;
1026;SDS011;502;48.746;9.214;2024-02-16T14:10:25;4.67;;;3.30;;
1026;SDS011;502;48.746;9.214;2024-02-16T14:12:51;4.37;;;3.80;;
1026;SDS011;502;48.746;9.214;2024-02-16T14:15:18;6.47;;;3.20;;
1026;SDS011;502;48.746;9.214;2024-02-16T14:17:45;7.43;;;3.60;;
1026;SDS011;502;48.746;9.214;2024-02-16T14:20:11;5.43;;;3.50;;
1026;SDS011;502;48.746;9.214;2024-02-16T14:22:39;5.13;;;3.27;;
1026;SDS011;502;48.746;9.214;2024-02-16T14:25:06;3.33;;;2.73;;
1026;SDS011;502;48.746;9.214;2024-02-16T14:27:35;8.73;;;3.90;;
1026;SDS011;502;48.746;9.214;2024-02-16T14:30:02;7.70;;;3.57;;
1026;SDS011;502;48.746;9.214;2024-02-16T14:32:29;4.40;;;3.30;;
1026;SDS011;502;48.746;9.214;2024-02-16T14:34:56;5.57;;;3.80;;
1026;SDS011;502;48.746;9.214;2024-02-16T14:37:22;4.50;;;3.50;;
1026;SDS011;502;48.746;9.214;2024-02-16T14:39:50;6.20;;;3.03;;
1026;SDS011;502;48.746;9.214;2024-02-16T14:42:22;5.50;;;3.50;;
1026;SDS011;502;48.746;9.214;2024-02-16T14:44:48;5.03;;;3.40;;
1026;SDS011;502;48.746;9.214;2024-02-16T14:47:15;4.53;;;3.70;;
1026;SDS011;502;48.746;9.214;2024-02-16T14:49:42;5.00;;;3.30;;
1026;SDS011;502;48.746;9.214;2024-02-16T14:52:08;5.03;;;3.53;;
1026;SDS011;502;48.746;9.214;2024-02-16T14:54:35;5.20;;;3.80;;
1026;SDS011;502;48.746;9.214;2024-02-16T14:57:04;5.30;;;3.43;;
1026;SDS011;502;48.746;9.214;2024-02-16T14:59:30;5.60;;;3.80;;
1026;SDS011;502;48.746;9.214;2024-02-16T15:01:57;4.93;;;3.27;;
1026;SDS011;502;48.746;9.214;2024-02-16T15:04:23;4.53;;;3.03;;
1026;SDS011;502;48.746;9.214;2024-02-16T15:06:50;3.57;;;3.00;;
1026;SDS011;502;48.746;9.214;2024-02-16T15:09:17;4.73;;;2.50;;
1026;SDS011;502;48.746;9.214;2024-02-16T15:11:43;4.17;;;2.40;;
1026;SDS011;502;48.746;9.214;2024-02-16T15:14:11;5.57;;;2.20;;
1026;SDS011;502;48.746;9.214;2024-02-16T15:16:38;6.70;;;2.37;;
1026;SDS011;502;48.746;9.214;2024-02-16T15:19:05;4.97;;;2.30;;
1026;SDS011;502;48.746;9.214;2024-02-16T15:21:31;2.57;;;1.73;;
1026;SDS011;502;48.746;9.214;2024-02-16T15:23:58;2.90;;;1.77;;
1026;SDS011;502;48.746;9.214;2024-02-16T15:26:24;3.77;;;1.77;;
1026;SDS011;502;48.746;9.214;2024-02-16T15:28:51;4.80;;;2.07;;
1026;SDS011;502;48.746;9.214;2024-02-16T15:31:19;2.83;;;1.70;;
1026;SDS011;502;48.746;9.214;2024-02-16T15:33:45;3.73;;;1.53;;
1026;SDS011;502;48.746;9.214;2024-02-16T15:36:12;4.90;;;2.30;;